sensor_id;sensor_type;location;lat;lon;timestamp;temperature;humidity
60027;DHT22;45891;53.006;6.512;2022-07-06T00:02:21;14.30;99.90
60027;DHT22;45891;53.006;6.512;2022-07-06T00:04:47;14.20;99.90
60027;DHT22;45891;53.006;6.512;2022-07-06T00:07:14;14.20;99.90
60027;DHT22;45891;53.006;6.512;2022-07-06T00:09:42;14.30;99.90
60027;DHT22;45891;53.006;6.512;2022-07-06T00:12:09;14.20;99.90
60027;DHT22;45891;53.006;6.512;2022-07-06T00:14:35;14.20;99.90
60027;DHT22;45891;53.006;6.512;2022-07-06T00:17:01;14.20;99.90
60027;DHT22;45891;53.006;6.512;2022-07-06T00:19:28;14.20;99.90
60027;DHT22;45891;53.006;6.512;2022-07-06T00:21:54;14.20;99.90
60027;DHT22;45891;53.006;6.512;2022-07-06T00:24:20;14.20;99.90
60027;DHT22;45891;53.006;6.512;2022-07-06T00:26:46;14.20;99.90
60027;DHT22;45891;53.006;6.512;2022-07-06T00:29:12;14.10;99.90
60027;DHT22;45891;53.006;6.512;2022-07-06T00:31:39;14.10;99.90
60027;DHT22;45891;53.006;6.512;2022-07-06T00:34:05;14.20;99.90
60027;DHT22;45891;53.006;6.512;2022-07-06T00:36:31;14.10;99.90
60027;DHT22;45891;53.006;6.512;2022-07-06T00:38:57;14.10;99.90
60027;DHT22;45891;53.006;6.512;2022-07-06T00:41:23;14.10;99.90
60027;DHT22;45891;53.006;6.512;2022-07-06T00:43:55;14.10;99.90
60027;DHT22;45891;53.006;6.512;2022-07-06T00:46:42;14.10;99.90
60027;DHT22;45891;53.006;6.512;2022-07-06T00:49:08;14.10;99.90
60027;DHT22;45891;53.006;6.512;2022-07-06T00:51:54;14.10;99.90
60027;DHT22;45891;53.006;6.512;2022-07-06T00:54:20;14.10;99.90
60027;DHT22;45891;53.006;6.512;2022-07-06T00:56:46;14.00;99.90
60027;DHT22;45891;53.006;6.512;2022-07-06T00:59:13;14.00;99.90
60027;DHT22;45891;53.006;6.512;2022-07-06T01:01:39;14.00;99.90
60027;DHT22;45891;53.006;6.512;2022-07-06T01:04:05;14.00;99.90
60027;DHT22;45891;53.006;6.512;2022-07-06T01:06:31;14.00;99.90
60027;DHT22;45891;53.006;6.512;2022-07-06T01:08:59;14.00;99.90
60027;DHT22;45891;53.006;6.512;2022-07-06T01:11:25;14.00;99.90
60027;DHT22;45891;53.006;6.512;2022-07-06T01:13:52;14.10;99.90
60027;DHT22;45891;53.006;6.512;2022-07-06T01:16:18;14.10;99.90
60027;DHT22;45891;53.006;6.512;2022-07-06T01:18:44;14.10;99.90
60027;DHT22;45891;53.006;6.512;2022-07-06T01:21:13;14.10;99.90
60027;DHT22;45891;53.006;6.512;2022-07-06T01:23:44;14.10;99.90
60027;DHT22;45891;53.006;6.512;2022-07-06T01:26:13;14.10;99.90
60027;DHT22;45891;53.006;6.512;2022-07-06T01:28:39;14.10;99.90
60027;DHT22;45891;53.006;6.512;2022-07-06T01:31:14;14.10;99.90
60027;DHT22;45891;53.006;6.512;2022-07-06T01:33:41;14.10;99.90
60027;DHT22;45891;53.006;6.512;2022-07-06T01:36:07;14.10;99.90
60027;DHT22;45891;53.006;6.512;2022-07-06T01:38:46;14.10;99.90
60027;DHT22;45891;53.006;6.512;2022-07-06T01:41:13;14.10;99.90
60027;DHT22;45891;53.006;6.512;2022-07-06T01:43:39;14.10;99.90
60027;DHT22;45891;53.006;6.512;2022-07-06T01:46:05;14.10;99.90
60027;DHT22;45891;53.006;6.512;2022-07-06T01:48:31;14.10;99.90
60027;DHT22;45891;53.006;6.512;2022-07-06T01:50:57;14.10;99.90
60027;DHT22;45891;53.006;6.512;2022-07-06T01:53:24;14.00;99.90
60027;DHT22;45891;53.006;6.512;2022-07-06T01:55:50;14.00;99.90
60027;DHT22;45891;53.006;6.512;2022-07-06T01:58:16;14.00;99.90
60027;DHT22;45891;53.006;6.512;2022-07-06T02:00:42;14.10;99.90
60027;DHT22;45891;53.006;6.512;2022-07-06T02:03:08;14.10;99.90
60027;DHT22;45891;53.006;6.512;2022-07-06T02:05:34;14.10;99.90
60027;DHT22;45891;53.006;6.512;2022-07-06T02:08:00;14.10;99.90
60027;DHT22;45891;53.006;6.512;2022-07-06T02:10:26;14.00;99.90
60027;DHT22;45891;53.006;6.512;2022-07-06T02:12:53;14.10;99.90
60027;DHT22;45891;53.006;6.512;2022-07-06T02:15:19;14.10;99.90
60027;DHT22;45891;53.006;6.512;2022-07-06T02:17:45;14.00;99.90
60027;DHT22;45891;53.006;6.512;2022-07-06T02:20:11;14.00;99.90
60027;DHT22;45891;53.006;6.512;2022-07-06T02:22:37;14.00;99.90
60027;DHT22;45891;53.006;6.512;2022-07-06T02:25:04;14.00;99.90
60027;DHT22;45891;53.006;6.512;2022-07-06T02:27:30;14.00;99.90
60027;DHT22;45891;53.006;6.512;2022-07-06T02:29:57;14.00;99.90
60027;DHT22;45891;53.006;6.512;2022-07-06T02:32:23;13.90;99.90
60027;DHT22;45891;53.006;6.512;2022-07-06T02:34:49;14.00;99.90
60027;DHT22;45891;53.006;6.512;2022-07-06T02:37:15;14.00;99.90
60027;DHT22;45891;53.006;6.512;2022-07-06T02:39:41;14.00;99.90
60027;DHT22;45891;53.006;6.512;2022-07-06T02:42:07;14.00;99.90
60027;DHT22;45891;53.006;6.512;2022-07-06T02:44:34;14.00;99.90
60027;DHT22;45891;53.006;6.512;2022-07-06T02:47:00;14.00;99.90
60027;DHT22;45891;53.006;6.512;2022-07-06T02:49:26;14.00;99.90
60027;DHT22;45891;53.006;6.512;2022-07-06T02:51:52;14.00;99.90
60027;DHT22;45891;53.006;6.512;2022-07-06T02:54:18;14.00;99.90
60027;DHT22;45891;53.006;6.512;2022-07-06T02:56:44;14.00;99.90
60027;DHT22;45891;53.006;6.512;2022-07-06T02:59:13;14.00;99.90
60027;DHT22;45891;53.006;6.512;2022-07-06T03:01:40;14.00;99.90
60027;DHT22;45891;53.006;6.512;2022-07-06T03:04:06;14.00;99.90
60027;DHT22;45891;53.006;6.512;2022-07-06T03:06:32;14.00;99.90
60027;DHT22;45891;53.006;6.512;2022-07-06T03:08:58;14.00;99.90
60027;DHT22;45891;53.006;6.512;2022-07-06T03:11:25;14.00;99.90
60027;DHT22;45891;53.006;6.512;2022-07-06T03:13:51;14.00;99.90
60027;DHT22;45891;53.006;6.512;2022-07-06T03:16:17;14.00;99.90
60027;DHT22;45891;53.006;6.512;2022-07-06T03:18:43;14.10;99.90
60027;DHT22;45891;53.006;6.512;2022-07-06T03:21:09;14.00;99.90
60027;DHT22;45891;53.006;6.512;2022-07-06T03:23:35;14.00;99.90
60027;DHT22;45891;53.006;6.512;2022-07-06T03:26:01;14.10;99.90
60027;DHT22;45891;53.006;6.512;2022-07-06T03:28:27;14.10;99.90
60027;DHT22;45891;53.006;6.512;2022-07-06T03:30:54;14.10;99.90
60027;DHT22;45891;53.006;6.512;2022-07-06T03:33:20;14.10;99.90
60027;DHT22;45891;53.006;6.512;2022-07-06T03:35:46;14.10;99.90
60027;DHT22;45891;53.006;6.512;2022-07-06T03:38:12;14.10;99.90
60027;DHT22;45891;53.006;6.512;2022-07-06T03:40:39;14.10;99.90
60027;DHT22;45891;53.006;6.512;2022-07-06T03:43:05;14.10;99.90
60027;DHT22;45891;53.006;6.512;2022-07-06T03:45:31;14.00;99.90
60027;DHT22;45891;53.006;6.512;2022-07-06T03:47:57;14.10;99.90
60027;DHT22;45891;53.006;6.512;2022-07-06T03:50:23;14.00;99.90
60027;DHT22;45891;53.006;6.512;2022-07-06T03:52:49;14.00;99.90
60027;DHT22;45891;53.006;6.512;2022-07-06T03:55:15;14.00;99.90
60027;DHT22;45891;53.006;6.512;2022-07-06T03:57:41;14.00;99.90
60027;DHT22;45891;53.006;6.512;2022-07-06T04:00:08;14.00;99.90
60027;DHT22;45891;53.006;6.512;2022-07-06T04:02:35;14.00;99.90
60027;DHT22;45891;53.006;6.512;2022-07-06T04:05:01;14.00;99.90
60027;DHT22;45891;53.006;6.512;2022-07-06T04:07:27;14.00;99.90
60027;DHT22;45891;53.006;6.512;2022-07-06T04:09:54;14.00;99.90
60027;DHT22;45891;53.006;6.512;2022-07-06T04:12:20;14.00;99.90
60027;DHT22;45891;53.006;6.512;2022-07-06T04:14:46;14.00;99.90
60027;DHT22;45891;53.006;6.512;2022-07-06T04:17:12;14.00;99.90
60027;DHT22;45891;53.006;6.512;2022-07-06T04:19:57;14.00;99.90
60027;DHT22;45891;53.006;6.512;2022-07-06T04:22:23;14.00;99.90
60027;DHT22;45891;53.006;6.512;2022-07-06T04:24:49;14.00;99.90
60027;DHT22;45891;53.006;6.512;2022-07-06T04:27:15;14.00;99.90
60027;DHT22;45891;53.006;6.512;2022-07-06T04:29:43;14.00;99.90
60027;DHT22;45891;53.006;6.512;2022-07-06T04:32:09;14.10;99.90
60027;DHT22;45891;53.006;6.512;2022-07-06T04:34:35;14.10;99.90
60027;DHT22;45891;53.006;6.512;2022-07-06T04:37:01;14.10;99.90
60027;DHT22;45891;53.006;6.512;2022-07-06T04:39:28;14.20;99.90
60027;DHT22;45891;53.006;6.512;2022-07-06T04:41:56;14.20;99.90
60027;DHT22;45891;53.006;6.512;2022-07-06T04:44:22;14.20;99.90
60027;DHT22;45891;53.006;6.512;2022-07-06T04:46:50;14.20;99.90
60027;DHT22;45891;53.006;6.512;2022-07-06T04:49:16;14.20;99.90
60027;DHT22;45891;53.006;6.512;2022-07-06T04:51:42;14.10;99.90
60027;DHT22;45891;53.006;6.512;2022-07-06T04:54:08;14.10;99.90
60027;DHT22;45891;53.006;6.512;2022-07-06T04:56:34;14.10;99.90
60027;DHT22;45891;53.006;6.512;2022-07-06T04:59:00;14.10;99.90
60027;DHT22;45891;53.006;6.512;2022-07-06T05:01:27;14.10;99.90
60027;DHT22;45891;53.006;6.512;2022-07-06T05:03:53;14.10;99.90
60027;DHT22;45891;53.006;6.512;2022-07-06T05:06:19;14.10;99.90
60027;DHT22;45891;53.006;6.512;2022-07-06T05:08:46;14.10;99.90
60027;DHT22;45891;53.006;6.512;2022-07-06T05:11:12;14.10;99.90
60027;DHT22;45891;53.006;6.512;2022-07-06T05:13:38;14.20;99.90
60027;DHT22;45891;53.006;6.512;2022-07-06T05:16:04;14.20;99.90
60027;DHT22;45891;53.006;6.512;2022-07-06T05:18:30;14.30;99.90
60027;DHT22;45891;53.006;6.512;2022-07-06T05:20:57;14.40;99.90
60027;DHT22;45891;53.006;6.512;2022-07-06T05:23:23;14.40;99.90
60027;DHT22;45891;53.006;6.512;2022-07-06T05:25:49;14.50;99.90
60027;DHT22;45891;53.006;6.512;2022-07-06T05:28:15;14.50;99.90
60027;DHT22;45891;53.006;6.512;2022-07-06T05:30:41;14.50;99.90
60027;DHT22;45891;53.006;6.512;2022-07-06T05:33:07;14.60;99.90
60027;DHT22;45891;53.006;6.512;2022-07-06T05:35:33;14.60;99.90
60027;DHT22;45891;53.006;6.512;2022-07-06T05:37:59;14.60;99.90
60027;DHT22;45891;53.006;6.512;2022-07-06T05:40:26;14.60;99.90
60027;DHT22;45891;53.006;6.512;2022-07-06T05:42:52;14.70;99.90
60027;DHT22;45891;53.006;6.512;2022-07-06T05:45:18;14.80;99.90
60027;DHT22;45891;53.006;6.512;2022-07-06T05:47:44;14.90;99.90
60027;DHT22;45891;53.006;6.512;2022-07-06T05:50:29;14.90;99.90
60027;DHT22;45891;53.006;6.512;2022-07-06T05:53:00;14.70;99.90
60027;DHT22;45891;53.006;6.512;2022-07-06T05:55:26;14.70;99.90
60027;DHT22;45891;53.006;6.512;2022-07-06T05:57:53;14.60;99.90
60027;DHT22;45891;53.006;6.512;2022-07-06T06:00:20;14.60;99.90
60027;DHT22;45891;53.006;6.512;2022-07-06T06:02:47;14.60;99.90
60027;DHT22;45891;53.006;6.512;2022-07-06T06:05:14;14.60;99.90
60027;DHT22;45891;53.006;6.512;2022-07-06T06:07:40;14.70;99.90
60027;DHT22;45891;53.006;6.512;2022-07-06T06:10:12;14.80;99.90
60027;DHT22;45891;53.006;6.512;2022-07-06T06:12:39;14.70;99.90
60027;DHT22;45891;53.006;6.512;2022-07-06T06:15:07;14.80;99.90
60027;DHT22;45891;53.006;6.512;2022-07-06T06:17:34;14.70;99.90
60027;DHT22;45891;53.006;6.512;2022-07-06T06:20:01;14.80;99.90
60027;DHT22;45891;53.006;6.512;2022-07-06T06:22:27;14.80;99.90
60027;DHT22;45891;53.006;6.512;2022-07-06T06:24:53;14.90;99.90
60027;DHT22;45891;53.006;6.512;2022-07-06T06:27:19;15.10;99.90
60027;DHT22;45891;53.006;6.512;2022-07-06T06:29:45;15.20;99.90
60027;DHT22;45891;53.006;6.512;2022-07-06T06:32:13;15.30;99.90
60027;DHT22;45891;53.006;6.512;2022-07-06T06:34:40;15.50;99.90
60027;DHT22;45891;53.006;6.512;2022-07-06T06:37:06;15.60;99.90
60027;DHT22;45891;53.006;6.512;2022-07-06T06:39:32;15.70;99.90
60027;DHT22;45891;53.006;6.512;2022-07-06T06:41:58;15.80;99.90
60027;DHT22;45891;53.006;6.512;2022-07-06T06:44:25;15.90;99.90
60027;DHT22;45891;53.006;6.512;2022-07-06T06:46:51;16.00;99.90
60027;DHT22;45891;53.006;6.512;2022-07-06T06:49:18;16.00;99.90
60027;DHT22;45891;53.006;6.512;2022-07-06T06:51:44;16.00;99.90
60027;DHT22;45891;53.006;6.512;2022-07-06T06:54:10;16.00;99.90
60027;DHT22;45891;53.006;6.512;2022-07-06T06:56:37;16.00;99.90
60027;DHT22;45891;53.006;6.512;2022-07-06T06:59:03;16.10;99.90
60027;DHT22;45891;53.006;6.512;2022-07-06T07:01:29;16.20;99.90
60027;DHT22;45891;53.006;6.512;2022-07-06T07:03:55;16.20;99.90
60027;DHT22;45891;53.006;6.512;2022-07-06T07:06:22;16.10;99.90
60027;DHT22;45891;53.006;6.512;2022-07-06T07:08:48;16.20;99.90
60027;DHT22;45891;53.006;6.512;2022-07-06T07:11:14;16.10;99.90
60027;DHT22;45891;53.006;6.512;2022-07-06T07:13:40;16.30;99.90
60027;DHT22;45891;53.006;6.512;2022-07-06T07:16:06;16.40;99.90
60027;DHT22;45891;53.006;6.512;2022-07-06T07:18:33;16.50;99.90
60027;DHT22;45891;53.006;6.512;2022-07-06T07:20:59;16.80;99.90
60027;DHT22;45891;53.006;6.512;2022-07-06T07:23:26;16.90;99.90
60027;DHT22;45891;53.006;6.512;2022-07-06T07:25:52;17.10;99.90
60027;DHT22;45891;53.006;6.512;2022-07-06T07:28:18;17.30;99.90
60027;DHT22;45891;53.006;6.512;2022-07-06T07:30:44;17.60;99.90
60027;DHT22;45891;53.006;6.512;2022-07-06T07:33:10;18.00;99.90
60027;DHT22;45891;53.006;6.512;2022-07-06T07:35:36;18.10;99.90
60027;DHT22;45891;53.006;6.512;2022-07-06T07:38:02;18.20;99.90
60027;DHT22;45891;53.006;6.512;2022-07-06T07:40:28;18.40;99.90
60027;DHT22;45891;53.006;6.512;2022-07-06T07:42:55;18.60;99.90
60027;DHT22;45891;53.006;6.512;2022-07-06T07:45:21;18.90;99.90
60027;DHT22;45891;53.006;6.512;2022-07-06T07:47:47;18.60;99.80
60027;DHT22;45891;53.006;6.512;2022-07-06T07:50:14;18.30;99.50
60027;DHT22;45891;53.006;6.512;2022-07-06T07:52:40;17.90;99.90
60027;DHT22;45891;53.006;6.512;2022-07-06T07:55:07;17.70;99.90
60027;DHT22;45891;53.006;6.512;2022-07-06T07:57:33;17.60;99.90
60027;DHT22;45891;53.006;6.512;2022-07-06T07:59:59;17.50;99.90
60027;DHT22;45891;53.006;6.512;2022-07-06T08:02:25;17.50;99.90
60027;DHT22;45891;53.006;6.512;2022-07-06T08:04:51;17.40;99.40
60027;DHT22;45891;53.006;6.512;2022-07-06T08:07:18;17.30;99.70
60027;DHT22;45891;53.006;6.512;2022-07-06T08:09:44;17.40;99.40
60027;DHT22;45891;53.006;6.512;2022-07-06T08:12:10;17.60;99.20
60027;DHT22;45891;53.006;6.512;2022-07-06T08:14:36;17.70;98.50
60027;DHT22;45891;53.006;6.512;2022-07-06T08:17:03;17.60;99.00
60027;DHT22;45891;53.006;6.512;2022-07-06T08:19:30;17.40;98.80
60027;DHT22;45891;53.006;6.512;2022-07-06T08:21:57;17.40;98.60
60027;DHT22;45891;53.006;6.512;2022-07-06T08:24:23;17.40;99.00
60027;DHT22;45891;53.006;6.512;2022-07-06T08:26:49;17.60;98.80
60027;DHT22;45891;53.006;6.512;2022-07-06T08:29:15;17.70;98.70
60027;DHT22;45891;53.006;6.512;2022-07-06T08:31:41;17.70;98.90
60027;DHT22;45891;53.006;6.512;2022-07-06T08:34:07;17.90;99.00
60027;DHT22;45891;53.006;6.512;2022-07-06T08:36:34;18.00;98.80
60027;DHT22;45891;53.006;6.512;2022-07-06T08:39:00;18.30;98.40
60027;DHT22;45891;53.006;6.512;2022-07-06T08:41:28;18.50;97.70
60027;DHT22;45891;53.006;6.512;2022-07-06T08:43:55;18.60;95.70
60027;DHT22;45891;53.006;6.512;2022-07-06T08:46:22;18.70;95.20
60027;DHT22;45891;53.006;6.512;2022-07-06T08:48:49;18.70;95.50
60027;DHT22;45891;53.006;6.512;2022-07-06T08:51:16;18.80;95.80
60027;DHT22;45891;53.006;6.512;2022-07-06T08:53:43;19.00;95.30
60027;DHT22;45891;53.006;6.512;2022-07-06T08:56:10;19.20;94.70
60027;DHT22;45891;53.006;6.512;2022-07-06T08:58:37;19.50;95.00
60027;DHT22;45891;53.006;6.512;2022-07-06T09:01:08;19.80;94.00
60027;DHT22;45891;53.006;6.512;2022-07-06T09:03:35;20.10;93.40
60027;DHT22;45891;53.006;6.512;2022-07-06T09:06:02;20.40;94.60
60027;DHT22;45891;53.006;6.512;2022-07-06T09:08:31;21.00;92.70
60027;DHT22;45891;53.006;6.512;2022-07-06T09:10:57;21.40;90.10
60027;DHT22;45891;53.006;6.512;2022-07-06T09:13:23;21.30;90.40
60027;DHT22;45891;53.006;6.512;2022-07-06T09:15:49;21.40;88.40
60027;DHT22;45891;53.006;6.512;2022-07-06T09:18:15;20.80;80.00
60027;DHT22;45891;53.006;6.512;2022-07-06T09:20:42;20.60;86.60
60027;DHT22;45891;53.006;6.512;2022-07-06T09:23:08;20.40;84.50
60027;DHT22;45891;53.006;6.512;2022-07-06T09:25:35;20.30;87.60
60027;DHT22;45891;53.006;6.512;2022-07-06T09:28:02;20.10;88.50
60027;DHT22;45891;53.006;6.512;2022-07-06T09:30:29;20.10;86.30
60027;DHT22;45891;53.006;6.512;2022-07-06T09:32:57;20.20;87.90
60027;DHT22;45891;53.006;6.512;2022-07-06T09:35:36;20.30;87.10
60027;DHT22;45891;53.006;6.512;2022-07-06T09:38:08;20.70;85.80
60027;DHT22;45891;53.006;6.512;2022-07-06T09:40:39;21.30;89.40
60027;DHT22;45891;53.006;6.512;2022-07-06T09:45:44;21.50;81.90
60027;DHT22;45891;53.006;6.512;2022-07-06T09:48:37;21.00;84.00
60027;DHT22;45891;53.006;6.512;2022-07-06T09:51:06;20.50;83.20
60027;DHT22;45891;53.006;6.512;2022-07-06T09:53:35;20.30;87.20
60027;DHT22;45891;53.006;6.512;2022-07-06T09:56:01;20.60;82.00
60027;DHT22;45891;53.006;6.512;2022-07-06T09:58:31;20.50;85.20
60027;DHT22;45891;53.006;6.512;2022-07-06T10:00:57;20.50;81.60
60027;DHT22;45891;53.006;6.512;2022-07-06T10:03:23;20.20;83.90
60027;DHT22;45891;53.006;6.512;2022-07-06T10:05:50;20.10;85.30
60027;DHT22;45891;53.006;6.512;2022-07-06T10:08:17;20.00;86.10
60027;DHT22;45891;53.006;6.512;2022-07-06T10:10:43;20.40;89.00
60027;DHT22;45891;53.006;6.512;2022-07-06T10:13:11;20.90;89.20
60027;DHT22;45891;53.006;6.512;2022-07-06T10:15:38;21.40;85.90
60027;DHT22;45891;53.006;6.512;2022-07-06T10:18:08;21.80;82.60
60027;DHT22;45891;53.006;6.512;2022-07-06T10:20:37;21.60;84.30
60027;DHT22;45891;53.006;6.512;2022-07-06T10:23:05;21.50;83.20
60027;DHT22;45891;53.006;6.512;2022-07-06T10:25:32;21.30;81.40
60027;DHT22;45891;53.006;6.512;2022-07-06T10:27:59;21.10;82.80
60027;DHT22;45891;53.006;6.512;2022-07-06T10:30:27;21.00;81.30
60027;DHT22;45891;53.006;6.512;2022-07-06T10:32:56;20.80;82.20
60027;DHT22;45891;53.006;6.512;2022-07-06T10:35:23;20.50;83.50
60027;DHT22;45891;53.006;6.512;2022-07-06T10:38:09;20.50;83.60
60027;DHT22;45891;53.006;6.512;2022-07-06T10:40:37;20.90;85.20
60027;DHT22;45891;53.006;6.512;2022-07-06T10:43:22;21.20;83.30
60027;DHT22;45891;53.006;6.512;2022-07-06T10:45:49;21.90;85.20
60027;DHT22;45891;53.006;6.512;2022-07-06T10:48:16;22.20;78.30
60027;DHT22;45891;53.006;6.512;2022-07-06T10:50:55;22.60;79.80
60027;DHT22;45891;53.006;6.512;2022-07-06T10:53:24;22.30;74.40
60027;DHT22;45891;53.006;6.512;2022-07-06T10:55:52;21.90;77.80
60027;DHT22;45891;53.006;6.512;2022-07-06T10:58:38;22.20;76.10
60027;DHT22;45891;53.006;6.512;2022-07-06T11:01:11;22.20;71.60
60027;DHT22;45891;53.006;6.512;2022-07-06T11:03:45;22.60;69.50
60027;DHT22;45891;53.006;6.512;2022-07-06T11:06:15;22.60;67.30
60027;DHT22;45891;53.006;6.512;2022-07-06T11:08:46;22.40;69.10
60027;DHT22;45891;53.006;6.512;2022-07-06T11:11:20;22.20;68.30
60027;DHT22;45891;53.006;6.512;2022-07-06T11:14:21;21.80;69.00
60027;DHT22;45891;53.006;6.512;2022-07-06T11:17:01;21.50;67.40
60027;DHT22;45891;53.006;6.512;2022-07-06T11:19:28;21.10;70.70
60027;DHT22;45891;53.006;6.512;2022-07-06T11:21:57;20.70;73.00
60027;DHT22;45891;53.006;6.512;2022-07-06T11:24:26;20.60;76.50
60027;DHT22;45891;53.006;6.512;2022-07-06T11:27:04;21.10;77.60
60027;DHT22;45891;53.006;6.512;2022-07-06T11:29:33;21.90;78.50
60027;DHT22;45891;53.006;6.512;2022-07-06T11:32:07;22.30;72.70
60027;DHT22;45891;53.006;6.512;2022-07-06T11:34:40;22.10;69.70
60027;DHT22;45891;53.006;6.512;2022-07-06T11:37:10;21.80;70.00
60027;DHT22;45891;53.006;6.512;2022-07-06T11:39:39;21.00;73.80
60027;DHT22;45891;53.006;6.512;2022-07-06T11:42:07;20.80;74.30
60027;DHT22;45891;53.006;6.512;2022-07-06T11:44:34;20.60;75.10
60027;DHT22;45891;53.006;6.512;2022-07-06T11:47:01;20.60;75.90
60027;DHT22;45891;53.006;6.512;2022-07-06T11:49:34;21.30;76.30
60027;DHT22;45891;53.006;6.512;2022-07-06T11:52:08;22.00;74.50
60027;DHT22;45891;53.006;6.512;2022-07-06T11:54:36;22.50;73.10
60027;DHT22;45891;53.006;6.512;2022-07-06T11:57:02;22.80;69.10
60027;DHT22;45891;53.006;6.512;2022-07-06T11:59:34;23.20;65.00
60027;DHT22;45891;53.006;6.512;2022-07-06T12:02:09;23.40;60.10
60027;DHT22;45891;53.006;6.512;2022-07-06T12:04:38;24.10;62.10
60027;DHT22;45891;53.006;6.512;2022-07-06T12:07:12;24.30;56.70
60027;DHT22;45891;53.006;6.512;2022-07-06T12:09:41;24.00;57.70
60027;DHT22;45891;53.006;6.512;2022-07-06T12:12:08;23.60;58.40
60027;DHT22;45891;53.006;6.512;2022-07-06T12:14:37;23.50;56.80
60027;DHT22;45891;53.006;6.512;2022-07-06T12:17:08;23.20;58.20
60027;DHT22;45891;53.006;6.512;2022-07-06T12:19:36;23.00;58.90
60027;DHT22;45891;53.006;6.512;2022-07-06T12:22:03;23.00;60.30
60027;DHT22;45891;53.006;6.512;2022-07-06T12:24:32;22.80;60.10
60027;DHT22;45891;53.006;6.512;2022-07-06T12:27:16;22.50;60.20
60027;DHT22;45891;53.006;6.512;2022-07-06T12:29:43;22.60;61.10
60027;DHT22;45891;53.006;6.512;2022-07-06T12:32:17;22.50;61.30
60027;DHT22;45891;53.006;6.512;2022-07-06T12:34:44;22.50;61.50
60027;DHT22;45891;53.006;6.512;2022-07-06T12:37:11;22.50;61.20
60027;DHT22;45891;53.006;6.512;2022-07-06T12:39:46;22.80;62.10
60027;DHT22;45891;53.006;6.512;2022-07-06T12:42:16;23.70;60.80
60027;DHT22;45891;53.006;6.512;2022-07-06T12:44:47;24.00;58.90
60027;DHT22;45891;53.006;6.512;2022-07-06T12:47:18;24.20;58.40
60027;DHT22;45891;53.006;6.512;2022-07-06T12:49:44;24.30;58.30
60027;DHT22;45891;53.006;6.512;2022-07-06T12:52:16;24.40;57.20
60027;DHT22;45891;53.006;6.512;2022-07-06T12:54:50;24.50;56.70
60027;DHT22;45891;53.006;6.512;2022-07-06T12:57:23;24.30;56.70
60027;DHT22;45891;53.006;6.512;2022-07-06T12:59:57;23.90;57.20
60027;DHT22;45891;53.006;6.512;2022-07-06T13:02:34;23.70;57.90
60027;DHT22;45891;53.006;6.512;2022-07-06T13:05:05;23.50;57.50
60027;DHT22;45891;53.006;6.512;2022-07-06T13:07:34;23.10;58.10
60027;DHT22;45891;53.006;6.512;2022-07-06T13:10:06;22.80;58.40
60027;DHT22;45891;53.006;6.512;2022-07-06T13:12:33;22.50;59.60
60027;DHT22;45891;53.006;6.512;2022-07-06T13:14:59;22.30;58.80
60027;DHT22;45891;53.006;6.512;2022-07-06T13:17:25;22.20;60.00
60027;DHT22;45891;53.006;6.512;2022-07-06T13:19:52;22.30;60.70
60027;DHT22;45891;53.006;6.512;2022-07-06T13:22:19;22.20;61.60
60027;DHT22;45891;53.006;6.512;2022-07-06T13:24:45;22.30;62.60
60027;DHT22;45891;53.006;6.512;2022-07-06T13:27:12;22.30;62.40
60027;DHT22;45891;53.006;6.512;2022-07-06T13:29:38;22.10;62.00
60027;DHT22;45891;53.006;6.512;2022-07-06T13:32:05;21.90;62.40
60027;DHT22;45891;53.006;6.512;2022-07-06T13:34:32;21.70;62.70
60027;DHT22;45891;53.006;6.512;2022-07-06T13:36:58;21.50;64.00
60027;DHT22;45891;53.006;6.512;2022-07-06T13:39:24;21.40;64.50
60027;DHT22;45891;53.006;6.512;2022-07-06T13:41:54;21.40;65.30
60027;DHT22;45891;53.006;6.512;2022-07-06T13:44:20;21.30;66.70
60027;DHT22;45891;53.006;6.512;2022-07-06T13:46:47;21.20;66.40
60027;DHT22;45891;53.006;6.512;2022-07-06T13:49:13;21.20;66.30
60027;DHT22;45891;53.006;6.512;2022-07-06T13:51:39;21.20;65.00
60027;DHT22;45891;53.006;6.512;2022-07-06T13:54:06;21.20;63.70
60027;DHT22;45891;53.006;6.512;2022-07-06T13:56:32;21.20;65.00
60027;DHT22;45891;53.006;6.512;2022-07-06T13:58:59;21.40;64.40
60027;DHT22;45891;53.006;6.512;2022-07-06T14:01:27;21.40;64.60
60027;DHT22;45891;53.006;6.512;2022-07-06T14:03:53;21.40;64.10
60027;DHT22;45891;53.006;6.512;2022-07-06T14:06:20;21.30;64.30
60027;DHT22;45891;53.006;6.512;2022-07-06T14:08:46;21.20;64.90
60027;DHT22;45891;53.006;6.512;2022-07-06T14:11:13;21.00;65.30
60027;DHT22;45891;53.006;6.512;2022-07-06T14:13:39;20.90;65.50
60027;DHT22;45891;53.006;6.512;2022-07-06T14:16:07;20.70;65.90
60027;DHT22;45891;53.006;6.512;2022-07-06T14:18:33;20.70;66.30
60027;DHT22;45891;53.006;6.512;2022-07-06T14:20:59;20.40;67.80
60027;DHT22;45891;53.006;6.512;2022-07-06T14:23:30;20.20;68.30
60027;DHT22;45891;53.006;6.512;2022-07-06T14:25:56;20.30;69.10
60027;DHT22;45891;53.006;6.512;2022-07-06T14:28:23;20.20;69.90
60027;DHT22;45891;53.006;6.512;2022-07-06T14:30:49;20.00;71.70
60027;DHT22;45891;53.006;6.512;2022-07-06T14:33:16;19.80;73.00
60027;DHT22;45891;53.006;6.512;2022-07-06T14:35:45;19.80;74.20
60027;DHT22;45891;53.006;6.512;2022-07-06T14:38:15;19.90;75.70
60027;DHT22;45891;53.006;6.512;2022-07-06T14:40:42;19.90;75.90
60027;DHT22;45891;53.006;6.512;2022-07-06T14:43:08;19.90;76.30
60027;DHT22;45891;53.006;6.512;2022-07-06T14:45:35;19.90;77.30
60027;DHT22;45891;53.006;6.512;2022-07-06T14:48:01;20.00;77.20
60027;DHT22;45891;53.006;6.512;2022-07-06T14:50:28;20.10;76.90
60027;DHT22;45891;53.006;6.512;2022-07-06T14:52:54;20.20;77.20
60027;DHT22;45891;53.006;6.512;2022-07-06T14:55:21;20.40;77.40
60027;DHT22;45891;53.006;6.512;2022-07-06T14:57:48;20.40;77.00
60027;DHT22;45891;53.006;6.512;2022-07-06T15:00:15;20.50;77.00
60027;DHT22;45891;53.006;6.512;2022-07-06T15:02:42;20.50;76.80
60027;DHT22;45891;53.006;6.512;2022-07-06T15:05:09;20.40;77.50
60027;DHT22;45891;53.006;6.512;2022-07-06T15:07:36;20.20;78.40
60027;DHT22;45891;53.006;6.512;2022-07-06T15:10:03;19.90;81.00
60027;DHT22;45891;53.006;6.512;2022-07-06T15:12:31;19.80;84.50
60027;DHT22;45891;53.006;6.512;2022-07-06T15:14:57;19.50;89.20
60027;DHT22;45891;53.006;6.512;2022-07-06T15:17:23;19.20;91.70
60027;DHT22;45891;53.006;6.512;2022-07-06T15:19:49;19.00;92.40
60027;DHT22;45891;53.006;6.512;2022-07-06T15:22:16;19.10;93.20
60027;DHT22;45891;53.006;6.512;2022-07-06T15:24:42;19.20;92.70
60027;DHT22;45891;53.006;6.512;2022-07-06T15:27:08;19.30;92.50
60027;DHT22;45891;53.006;6.512;2022-07-06T15:29:34;19.30;93.40
60027;DHT22;45891;53.006;6.512;2022-07-06T15:32:01;19.20;93.60
60027;DHT22;45891;53.006;6.512;2022-07-06T15:34:27;19.20;93.30
60027;DHT22;45891;53.006;6.512;2022-07-06T15:36:54;19.30;93.30